createdAt,value
2022-11-29T00:01:33.510Z,80.49
2022-11-29T00:04:00.920Z,80.38
2022-11-29T00:06:30.957Z,80.25
2022-11-29T00:09:00.797Z,80.56
2022-11-29T00:11:48.281Z,80.31
2022-11-29T00:14:18.370Z,80.89
2022-11-29T00:16:49.559Z,80.91
2022-11-29T00:19:16.537Z,80.96
2022-11-29T00:21:43.222Z,81.03
2022-11-29T00:24:10.299Z,80.70
2022-11-29T00:26:37.269Z,80.47
2022-11-29T00:29:05.046Z,80.74
2022-11-29T00:31:33.478Z,81.04
2022-11-29T00:34:03.140Z,80.74
2022-11-29T00:36:30.296Z,80.77
2022-11-29T00:38:57.176Z,80.25
2022-11-29T00:41:24.091Z,80.74
2022-11-29T00:43:50.851Z,80.56
2022-11-29T00:46:17.995Z,80.83
2022-11-29T00:48:44.904Z,81.08
2022-11-29T00:51:11.971Z,80.44
2022-11-29T00:53:39.034Z,80.63
2022-11-29T00:56:06.568Z,81.06
2022-11-29T00:58:33.405Z,80.65
2022-11-29T01:01:00.157Z,80.70
2022-11-29T01:03:27.156Z,80.87
2022-11-29T01:06:10.601Z,80.76
2022-11-29T01:08:37.830Z,81.06
2022-11-29T01:11:17.422Z,80.63
2022-11-29T01:13:44.483Z,81.48
2022-11-29T01:16:12.856Z,80.79
2022-11-29T01:18:39.647Z,80.35
2022-11-29T01:21:15.527Z,80.68
2022-11-29T01:23:42.958Z,80.51
2022-11-29T01:26:16.198Z,80.83
2022-11-29T01:28:45.218Z,80.98
2022-11-29T01:31:14.979Z,80.41
2022-11-29T01:33:42.397Z,80.68
2022-11-29T01:36:10.591Z,80.70
2022-11-29T01:38:37.310Z,80.92
2022-11-29T01:41:10.946Z,80.51
2022-11-29T01:44:06.446Z,80.97
2022-11-29T01:46:36.106Z,81.17
2022-11-29T01:49:12.066Z,80.87
2022-11-29T01:51:42.003Z,81.01
2022-11-29T01:54:10.784Z,81.09
2022-11-29T01:56:38.654Z,81.40
2022-11-29T01:59:10.676Z,81.34
2022-11-29T02:01:38.129Z,81.05
2022-11-29T02:04:06.767Z,80.46
2022-11-29T02:06:34.789Z,80.35
2022-11-29T02:09:02.218Z,80.93
2022-11-29T02:11:55.654Z,81.19
2022-11-29T02:14:35.933Z,81.06
2022-11-29T02:17:29.626Z,81.04
2022-11-29T02:20:34.131Z,80.83
2022-11-29T02:23:25.408Z,81.27
2022-11-29T02:26:16.209Z,80.83
2022-11-29T02:29:09.077Z,80.54
2022-11-29T02:32:06.584Z,80.35
2022-11-29T02:34:36.188Z,80.47
2022-11-29T02:37:28.545Z,80.23
2022-11-29T02:40:13.729Z,80.39
2022-11-29T02:42:58.899Z,79.87
2022-11-29T02:45:40.890Z,80.34
2022-11-29T02:48:17.855Z,80.03
2022-11-29T02:51:11.998Z,80.14
2022-11-29T02:53:55.932Z,80.52
2022-11-29T02:56:45.319Z,80.87
2022-11-29T02:59:27.184Z,81.03
2022-11-29T03:02:09.224Z,81.00
2022-11-29T03:04:48.417Z,81.18
2022-11-29T03:07:35.695Z,80.88
2022-11-29T03:10:10.154Z,81.42
2022-11-29T03:12:50.114Z,80.96
2022-11-29T03:15:26.573Z,81.04
2022-11-29T03:18:24.926Z,81.68
2022-11-29T03:21:16.610Z,81.83
2022-11-29T03:24:00.977Z,81.44
2022-11-29T03:26:38.998Z,81.60
2022-11-29T03:29:11.563Z,81.74
2022-11-29T03:32:07.122Z,81.57
2022-11-29T03:35:10.520Z,81.55
2022-11-29T03:37:59.494Z,81.53
2022-11-29T03:41:10.031Z,81.67
2022-11-29T03:43:43.415Z,82.54
2022-11-29T03:46:23.271Z,82.74
2022-11-29T03:48:56.410Z,82.21
2022-11-29T03:51:48.043Z,83.01
2022-11-29T03:54:47.219Z,82.78
2022-11-29T03:57:20.737Z,83.06
2022-11-29T03:59:57.423Z,83.11
2022-11-29T04:02:35.926Z,82.83
2022-11-29T04:05:24.233Z,82.82
2022-11-29T04:08:32.817Z,83.01
2022-11-29T04:11:18.750Z,82.45
2022-11-29T04:14:20.664Z,82.55
2022-11-29T04:17:29.249Z,82.59
2022-11-29T04:20:28.140Z,82.24
2022-11-29T04:23:19.357Z,82.10
2022-11-29T04:26:37.061Z,82.09
2022-11-29T04:29:28.420Z,82.40
2022-11-29T04:32:14.266Z,82.70
2022-11-29T04:35:10.550Z,82.54
2022-11-29T04:38:00.904Z,82.77
2022-11-29T04:40:47.954Z,82.76
2022-11-29T04:43:42.813Z,82.75
2022-11-29T04:46:32.186Z,82.50
2022-11-29T04:49:17.233Z,82.88
2022-11-29T04:52:10.579Z,82.21
2022-11-29T04:54:52.021Z,82.71
2022-11-29T04:57:33.198Z,82.10
2022-11-29T05:00:10.044Z,82.34
2022-11-29T05:02:48.528Z,82.39
2022-11-29T05:05:29.662Z,82.66
2022-11-29T05:07:59.114Z,83.24
2022-11-29T05:10:35.186Z,83.38
2022-11-29T05:13:26.313Z,82.82
2022-11-29T05:16:13.818Z,82.51
2022-11-29T05:18:57.573Z,83.05
2022-11-29T05:21:47.917Z,83.31
2022-11-29T05:24:39.084Z,83.15
2022-11-29T05:27:40.670Z,83.62
2022-11-29T05:30:17.987Z,82.89
2022-11-29T05:32:55.580Z,83.34
2022-11-29T05:35:30.808Z,83.43
2022-11-29T05:38:12.547Z,83.23
2022-11-29T05:40:46.186Z,83.08
2022-11-29T05:43:28.253Z,83.28
2022-11-29T05:46:24.824Z,82.97
2022-11-29T05:49:24.100Z,83.35
2022-11-29T05:52:02.617Z,82.89
2022-11-29T05:54:37.575Z,83.32
2022-11-29T05:57:06.783Z,83.50
2022-11-29T05:59:37.582Z,82.58
2022-11-29T06:02:26.251Z,82.72
2022-11-29T06:05:20.434Z,83.09
2022-11-29T06:07:57.830Z,82.87
2022-11-29T06:10:32.587Z,82.76
2022-11-29T06:13:30.112Z,82.60
2022-11-29T06:16:23.598Z,82.36
2022-11-29T06:19:38.265Z,81.28
2022-11-29T06:22:30.534Z,81.94
2022-11-29T06:25:30.583Z,81.21
2022-11-29T06:28:27.851Z,81.64
2022-11-29T06:31:21.277Z,81.64
2022-11-29T06:33:59.957Z,81.74
2022-11-29T06:37:01.148Z,82.29
2022-11-29T06:39:28.270Z,82.60
2022-11-29T06:41:54.943Z,82.08
2022-11-29T06:44:21.858Z,81.80
2022-11-29T06:47:19.513Z,82.35
2022-11-29T06:50:01.188Z,81.74
2022-11-29T06:53:02.848Z,81.70
2022-11-29T06:55:55.341Z,81.35
2022-11-29T06:58:50.067Z,81.32
2022-11-29T07:01:41.787Z,80.98
2022-11-29T07:04:45.705Z,81.25
2022-11-29T07:07:18.510Z,81.00
2022-11-29T07:09:46.923Z,80.76
2022-11-29T07:12:14.070Z,80.15
2022-11-29T07:14:41.005Z,80.48
2022-11-29T07:17:23.864Z,80.79
2022-11-29T07:20:09.997Z,80.12
2022-11-29T07:23:12.355Z,80.31
2022-11-29T07:25:48.045Z,80.55
2022-11-29T07:28:29.712Z,80.67
2022-11-29T07:31:24.716Z,81.05
2022-11-29T07:34:03.616Z,80.76
2022-11-29T07:37:00.319Z,80.90
2022-11-29T07:39:42.006Z,80.45
2022-11-29T07:42:36.071Z,80.62
2022-11-29T07:45:05.608Z,78.81
2022-11-29T07:47:35.740Z,79.76
2022-11-29T07:50:03.430Z,79.47
2022-11-29T07:52:30.119Z,79.48
2022-11-29T07:54:57.248Z,79.12
2022-11-29T07:57:24.455Z,79.59
2022-11-29T07:59:51.074Z,79.33
2022-11-29T08:02:31.319Z,79.45
2022-11-29T08:04:58.502Z,79.38
2022-11-29T08:07:25.365Z,79.79
2022-11-29T08:09:52.063Z,79.63
2022-11-29T08:12:18.691Z,79.58
2022-11-29T08:14:45.480Z,79.29
2022-11-29T08:17:12.319Z,79.20
2022-11-29T08:19:39.006Z,79.52
2022-11-29T08:22:05.674Z,78.76
2022-11-29T08:24:32.275Z,78.83
2022-11-29T08:26:58.946Z,78.63
2022-11-29T08:29:25.531Z,78.13
2022-11-29T08:31:53.929Z,78.38
2022-11-29T08:34:22.255Z,78.32
2022-11-29T08:36:49.666Z,78.29
2022-11-29T08:39:16.437Z,78.49
2022-11-29T08:41:43.490Z,78.52
2022-11-29T08:44:10.186Z,78.17
2022-11-29T08:46:55.082Z,78.10
2022-11-29T08:49:21.813Z,78.30
2022-11-29T08:51:48.556Z,77.92
2022-11-29T08:54:15.187Z,78.09
2022-11-29T08:59:28.602Z,78.16
2022-11-29T09:01:55.324Z,77.28
2022-11-29T09:04:21.951Z,77.32
2022-11-29T09:06:51.185Z,77.43
2022-11-29T09:09:18.186Z,77.65
2022-11-29T09:11:49.095Z,77.48
2022-11-29T09:14:17.011Z,77.14
2022-11-29T09:16:43.635Z,77.79
2022-11-29T09:19:10.370Z,77.27
2022-11-29T09:21:37.013Z,77.84
2022-11-29T09:24:06.375Z,77.82
2022-11-29T09:26:35.554Z,77.22
2022-11-29T09:29:04.844Z,77.45
2022-11-29T09:31:33.251Z,76.58
2022-11-29T09:33:59.998Z,77.03
2022-11-29T09:36:29.096Z,77.39
2022-11-29T09:38:57.214Z,77.38
2022-11-29T09:41:41.991Z,77.29
2022-11-29T09:44:38.392Z,76.93
2022-11-29T09:47:18.436Z,77.51
2022-11-29T09:49:56.104Z,77.49
2022-11-29T09:52:45.713Z,77.32
2022-11-29T09:55:33.681Z,76.74
2022-11-29T09:58:01.682Z,77.93
2022-11-29T10:00:29.509Z,77.86
2022-11-29T10:03:09.746Z,77.61
2022-11-29T10:05:47.410Z,77.73
2022-11-29T10:08:20.872Z,77.54
2022-11-29T10:10:50.497Z,77.03
2022-11-29T10:13:23.509Z,76.93
2022-11-29T10:16:15.147Z,77.30
2022-11-29T10:19:11.162Z,77.44
2022-11-29T10:21:43.781Z,77.05
2022-11-29T10:24:15.516Z,76.73
2022-11-29T10:26:43.534Z,77.26
2022-11-29T10:29:14.415Z,76.91
2022-11-29T10:31:44.076Z,77.44
2022-11-29T10:34:17.299Z,77.98
2022-11-29T10:36:55.114Z,77.56
2022-11-29T10:39:29.842Z,77.19
2022-11-29T10:42:02.103Z,77.18
2022-11-29T10:44:31.353Z,77.40
2022-11-29T10:47:05.440Z,77.33
2022-11-29T10:49:37.242Z,77.21
2022-11-29T10:52:03.825Z,77.36
2022-11-29T10:54:44.413Z,77.06
2022-11-29T10:57:22.004Z,76.78
2022-11-29T11:00:00.769Z,77.09
2022-11-29T11:02:27.969Z,76.86
2022-11-29T11:04:54.607Z,76.90
2022-11-29T11:07:35.970Z,76.81
2022-11-29T11:10:22.056Z,77.41
2022-11-29T11:13:03.629Z,77.10
2022-11-29T11:15:32.042Z,77.23
2022-11-29T11:18:04.447Z,77.50
2022-11-29T11:20:39.234Z,77.74
2022-11-29T11:23:20.889Z,77.98
2022-11-29T11:25:50.140Z,78.04
2022-11-29T11:28:26.251Z,77.50
2022-11-29T11:31:02.749Z,76.90
2022-11-29T11:33:31.530Z,77.29
2022-11-29T11:36:02.859Z,76.67
2022-11-29T11:38:30.006Z,77.10
2022-11-29T11:41:11.978Z,77.59
2022-11-29T11:43:39.783Z,77.98
2022-11-29T11:46:08.055Z,78.60
2022-11-29T11:48:35.455Z,78.41
2022-11-29T11:51:02.230Z,78.38
2022-11-29T11:53:37.671Z,78.16
2022-11-29T11:56:10.382Z,78.37
2022-11-29T11:58:39.170Z,78.51
2022-11-29T12:01:11.988Z,77.49
2022-11-29T12:03:52.699Z,77.97
2022-11-29T12:06:47.516Z,78.55
2022-11-29T12:09:35.951Z,77.65
2022-11-29T12:12:31.841Z,77.66
2022-11-29T12:15:18.404Z,77.18
2022-11-29T12:17:53.035Z,77.25
2022-11-29T12:20:26.386Z,77.34
2022-11-29T12:23:13.317Z,77.15
2022-11-29T12:25:46.233Z,76.32
2022-11-29T12:28:20.382Z,75.11
2022-11-29T12:31:15.634Z,75.31
2022-11-29T12:34:22.797Z,75.80
2022-11-29T12:37:15.907Z,76.08
2022-11-29T12:39:55.956Z,76.19
2022-11-29T12:43:00.116Z,76.67
2022-11-29T12:45:58.583Z,76.36
2022-11-29T12:48:34.416Z,76.64
2022-11-29T12:51:21.712Z,77.53
2022-11-29T12:54:27.284Z,77.25
2022-11-29T12:57:27.430Z,77.38
2022-11-29T13:00:15.376Z,77.38
2022-11-29T13:03:04.025Z,78.03
2022-11-29T13:05:50.453Z,77.57
2022-11-29T13:08:50.327Z,78.08
2022-11-29T13:11:28.881Z,77.91
2022-11-29T13:14:42.181Z,77.97
2022-11-29T13:17:21.048Z,77.30
2022-11-29T13:19:56.338Z,78.31
2022-11-29T13:22:50.931Z,77.83
2022-11-29T13:25:20.520Z,77.85
2022-11-29T13:28:15.795Z,77.47
2022-11-29T13:30:42.734Z,77.78
2022-11-29T13:33:16.975Z,78.00
2022-11-29T13:35:52.438Z,78.17
2022-11-29T13:38:26.790Z,77.85
2022-11-29T13:41:04.589Z,78.11
2022-11-29T13:43:53.870Z,77.93
2022-11-29T13:46:29.719Z,78.64
2022-11-29T13:48:56.612Z,78.24
2022-11-29T13:51:40.573Z,78.38
2022-11-29T13:54:27.863Z,78.04
2022-11-29T13:57:20.887Z,78.66
2022-11-29T13:59:50.240Z,78.68
2022-11-29T14:02:31.128Z,78.69
2022-11-29T14:04:58.432Z,78.76
2022-11-29T14:07:25.224Z,79.16
2022-11-29T14:10:05.940Z,78.91
2022-11-29T14:12:39.969Z,79.45
2022-11-29T14:15:31.117Z,78.81
2022-11-29T14:18:09.224Z,79.08
2022-11-29T14:20:40.462Z,79.02
2022-11-29T14:23:07.753Z,79.58
2022-11-29T14:25:57.510Z,79.01
2022-11-29T14:28:24.113Z,78.79
2022-11-29T14:30:52.976Z,78.64
2022-11-29T14:33:34.557Z,79.17
2022-11-29T14:36:19.926Z,79.20
2022-11-29T14:39:20.374Z,79.58
2022-11-29T14:42:06.411Z,79.41
2022-11-29T14:44:34.452Z,79.51
2022-11-29T14:47:05.298Z,79.46
2022-11-29T14:49:39.548Z,79.81
2022-11-29T14:52:18.888Z,79.80
2022-11-29T14:55:05.266Z,79.58
2022-11-29T14:58:01.168Z,79.44
2022-11-29T15:00:29.206Z,78.81
2022-11-29T15:03:09.191Z,79.05
2022-11-29T15:05:45.027Z,79.31
2022-11-29T15:08:29.334Z,79.20
2022-11-29T15:11:03.233Z,79.34
2022-11-29T15:13:36.271Z,79.41
2022-11-29T15:16:21.507Z,79.05
2022-11-29T15:19:18.882Z,79.40
2022-11-29T15:21:53.267Z,79.52
2022-11-29T15:24:25.004Z,79.42
2022-11-29T15:27:00.734Z,79.56
2022-11-29T15:29:28.933Z,79.23
2022-11-29T15:32:01.666Z,79.66
2022-11-29T15:34:43.230Z,79.52
2022-11-29T15:37:21.991Z,79.18
2022-11-29T15:40:01.949Z,78.87
2022-11-29T15:42:40.947Z,78.91
2022-11-29T15:45:32.302Z,78.68
2022-11-29T15:48:17.007Z,79.12
2022-11-29T15:50:57.792Z,78.53
2022-11-29T15:53:38.918Z,79.25
2022-11-29T15:56:15.581Z,79.06
2022-11-29T15:58:44.564Z,79.26
2022-11-29T16:01:18.895Z,79.02
2022-11-29T16:03:47.439Z,78.81
2022-11-29T16:06:33.182Z,79.24
2022-11-29T16:09:01.914Z,78.53
2022-11-29T16:11:31.438Z,79.03
2022-11-29T16:14:05.295Z,79.28
2022-11-29T16:16:35.396Z,78.63
2022-11-29T16:19:37.756Z,78.45
2022-11-29T16:22:10.234Z,78.73
2022-11-29T16:24:58.383Z,78.65
2022-11-29T16:27:27.087Z,78.55
2022-11-29T16:29:55.544Z,79.07
2022-11-29T16:32:29.319Z,77.98
2022-11-29T16:35:04.684Z,78.29
2022-11-29T16:37:40.401Z,78.59
2022-11-29T16:40:20.247Z,78.39
2022-11-29T16:43:19.531Z,78.36
2022-11-29T16:45:46.912Z,78.22
2022-11-29T16:48:22.792Z,78.30
2022-11-29T16:51:08.080Z,78.12
2022-11-29T16:53:36.953Z,78.10
2022-11-29T16:56:05.245Z,77.93
2022-11-29T16:58:34.658Z,77.75
2022-11-29T17:01:18.554Z,77.55
2022-11-29T17:03:45.744Z,78.12
2022-11-29T17:06:18.483Z,77.58
2022-11-29T17:08:45.648Z,78.30
2022-11-29T17:11:13.601Z,78.18
2022-11-29T17:13:40.331Z,78.06
2022-11-29T17:16:12.515Z,77.75
2022-11-29T17:18:41.020Z,78.20
2022-11-29T17:21:17.402Z,78.17
2022-11-29T17:23:45.669Z,77.91
2022-11-29T17:26:13.454Z,78.15
2022-11-29T17:28:40.791Z,77.68
2022-11-29T17:31:16.175Z,77.99
2022-11-29T17:33:43.181Z,78.09
2022-11-29T17:36:12.705Z,77.81
2022-11-29T17:38:39.459Z,78.01
2022-11-29T17:41:13.271Z,77.79
2022-11-29T17:43:40.457Z,77.92
2022-11-29T17:46:08.256Z,77.09
2022-11-29T17:48:35.923Z,76.95
2022-11-29T17:51:02.901Z,77.36
2022-11-29T17:53:31.472Z,77.92
2022-11-29T17:56:18.311Z,78.18
2022-11-29T17:58:45.103Z,77.33
2022-11-29T18:01:16.655Z,77.88
2022-11-29T18:03:45.235Z,77.59
2022-11-29T18:06:17.633Z,77.22
2022-11-29T18:08:47.101Z,77.35
2022-11-29T18:11:20.115Z,77.75
2022-11-29T18:13:48.190Z,77.24
2022-11-29T18:16:20.357Z,77.06
2022-11-29T18:18:47.910Z,77.40
2022-11-29T18:21:15.915Z,77.77
2022-11-29T18:23:43.211Z,78.14
2022-11-29T18:26:19.046Z,77.78
2022-11-29T18:28:46.521Z,77.62
2022-11-29T18:31:17.319Z,78.02
2022-11-29T18:33:46.026Z,77.95
2022-11-29T18:36:16.066Z,78.06
2022-11-29T18:38:49.270Z,78.20
2022-11-29T18:41:20.433Z,77.98
2022-11-29T18:43:48.681Z,78.16
2022-11-29T18:46:17.712Z,78.76
2022-11-29T18:48:47.738Z,78.46
2022-11-29T18:51:16.831Z,78.62
2022-11-29T18:53:44.751Z,78.15
2022-11-29T18:56:18.131Z,77.72
2022-11-29T18:58:47.717Z,77.63
2022-11-29T19:01:18.650Z,77.44
2022-11-29T19:03:53.208Z,77.76
2022-11-29T19:06:24.652Z,77.27
2022-11-29T19:08:52.674Z,77.89
2022-11-29T19:11:22.226Z,77.53
2022-11-29T19:13:53.922Z,77.12
2022-11-29T19:16:22.097Z,77.89
2022-11-29T19:18:52.255Z,79.07
2022-11-29T19:21:20.595Z,78.73
2022-11-29T19:23:58.338Z,79.20
2022-11-29T19:26:27.673Z,79.09
2022-11-29T19:28:55.300Z,78.61
2022-11-29T19:31:27.139Z,78.04
2022-11-29T19:33:55.094Z,77.82
2022-11-29T19:36:31.553Z,78.40
2022-11-29T19:39:00.785Z,78.53
2022-11-29T19:41:34.130Z,77.79
2022-11-29T19:44:04.118Z,77.28
2022-11-29T19:46:34.001Z,77.81
2022-11-29T19:49:03.574Z,78.70
2022-11-29T19:51:30.848Z,78.33
2022-11-29T19:54:00.201Z,78.02
2022-11-29T19:56:28.010Z,77.97
2022-11-29T19:58:55.324Z,77.77
2022-11-29T20:01:25.196Z,77.83
2022-11-29T20:03:52.577Z,77.54
2022-11-29T20:06:20.279Z,78.11
2022-11-29T20:08:47.167Z,78.22
2022-11-29T20:11:19.422Z,77.85
2022-11-29T20:14:00.153Z,77.60
2022-11-29T20:16:28.666Z,77.95
2022-11-29T20:18:56.581Z,78.21
2022-11-29T20:21:26.262Z,77.92
2022-11-29T20:23:58.501Z,77.60
2022-11-29T20:26:26.941Z,77.64
2022-11-29T20:28:53.582Z,77.36
2022-11-29T20:31:22.876Z,77.22
2022-11-29T20:33:52.051Z,77.28
2022-11-29T20:36:37.187Z,77.93
2022-11-29T20:39:24.053Z,77.45
2022-11-29T20:42:24.153Z,77.31
2022-11-29T20:45:04.933Z,77.73
2022-11-29T20:47:47.505Z,77.74
2022-11-29T20:50:24.196Z,77.25
2022-11-29T20:53:05.105Z,77.24
2022-11-29T20:55:32.183Z,77.96
2022-11-29T20:57:58.745Z,77.37
2022-11-29T21:00:25.656Z,77.24
2022-11-29T21:02:52.371Z,77.50
2022-11-29T21:05:18.997Z,76.91
2022-11-29T21:07:46.676Z,77.37
2022-11-29T21:10:15.418Z,77.15
2022-11-29T21:12:45.754Z,77.31
2022-11-29T21:15:15.354Z,77.91
2022-11-29T21:17:43.139Z,77.77
2022-11-29T21:20:18.067Z,76.97
2022-11-29T21:22:58.481Z,76.74
2022-11-29T21:25:43.339Z,77.04
2022-11-29T21:28:15.340Z,77.29
2022-11-29T21:30:43.076Z,77.13
2022-11-29T21:33:10.540Z,76.81
2022-11-29T21:35:42.357Z,76.90
2022-11-29T21:38:14.676Z,76.99
2022-11-29T21:40:41.309Z,76.36
2022-11-29T21:43:08.006Z,76.47
2022-11-29T21:45:34.859Z,76.88
2022-11-29T21:48:01.613Z,76.94
2022-11-29T21:50:28.365Z,76.75
2022-11-29T21:52:56.113Z,76.14
2022-11-29T21:55:22.782Z,76.94
2022-11-29T21:57:49.405Z,76.13
2022-11-29T22:00:16.609Z,76.55
2022-11-29T22:02:43.348Z,76.66
2022-11-29T22:05:10.089Z,77.16
2022-11-29T22:07:36.751Z,76.39
2022-11-29T22:10:10.043Z,76.78
2022-11-29T22:12:49.364Z,76.77
2022-11-29T22:15:24.146Z,76.89
2022-11-29T22:17:53.268Z,77.01
2022-11-29T22:20:20.559Z,76.77
2022-11-29T22:22:48.503Z,77.00
2022-11-29T22:25:15.559Z,75.97
2022-11-29T22:27:42.355Z,76.31
2022-11-29T22:30:09.653Z,76.42
2022-11-29T22:32:36.334Z,76.88
2022-11-29T22:35:03.087Z,76.58
2022-11-29T22:37:29.644Z,76.34
2022-11-29T22:39:56.406Z,76.64
2022-11-29T22:42:23.007Z,76.89
2022-11-29T22:44:49.785Z,76.82
2022-11-29T22:47:16.512Z,76.82
2022-11-29T22:49:44.550Z,77.06
2022-11-29T22:52:11.121Z,76.83
2022-11-29T22:54:37.770Z,76.96
2022-11-29T22:57:04.757Z,76.70
2022-11-29T22:59:31.314Z,76.06
2022-11-29T23:01:58.010Z,76.27
2022-11-29T23:04:24.721Z,76.32
2022-11-29T23:06:51.330Z,76.53
2022-11-29T23:09:22.306Z,76.56
2022-11-29T23:11:52.454Z,76.11
2022-11-29T23:14:20.078Z,76.65
2022-11-29T23:16:46.972Z,75.97
2022-11-29T23:19:16.084Z,76.53
2022-11-29T23:21:45.437Z,76.78
2022-11-29T23:24:12.575Z,76.15
2022-11-29T23:26:46.910Z,76.20
2022-11-29T23:29:17.297Z,75.96
2022-11-29T23:31:44.475Z,76.16
2022-11-29T23:34:11.117Z,76.35
2022-11-29T23:36:38.234Z,76.17
2022-11-29T23:39:06.572Z,76.44
2022-11-29T23:41:34.434Z,76.62
2022-11-29T23:44:03.538Z,75.52
2022-11-29T23:46:30.222Z,75.46
2022-11-29T23:48:56.978Z,75.26
2022-11-29T23:51:23.641Z,76.05
2022-11-29T23:53:54.806Z,75.84
2022-11-29T23:56:22.272Z,76.13
2022-11-29T23:58:49.364Z,76.11
